sensor_id;sensor_type;location;lat;lon;timestamp;P1;durP1;ratioP1;P2;durP2;ratioP2
54171;SDS011;40076;52.354;4.970;2023-03-05T00:01:07;12.88;;;2.22;;
54171;SDS011;40076;52.354;4.970;2023-03-05T00:03:35;12.10;;;2.58;;
54171;SDS011;40076;52.354;4.970;2023-03-05T00:06:00;8.55;;;2.60;;
54171;SDS011;40076;52.354;4.970;2023-03-05T00:08:27;10.02;;;2.13;;
54171;SDS011;40076;52.354;4.970;2023-03-05T00:10:56;8.38;;;1.90;;
54171;SDS011;40076;52.354;4.970;2023-03-05T00:13:23;9.68;;;2.10;;
54171;SDS011;40076;52.354;4.970;2023-03-05T00:15:49;8.27;;;1.67;;
54171;SDS011;40076;52.354;4.970;2023-03-05T00:18:14;8.07;;;1.70;;
54171;SDS011;40076;52.354;4.970;2023-03-05T00:20:39;9.27;;;1.70;;
54171;SDS011;40076;52.354;4.970;2023-03-05T00:23:05;7.93;;;1.80;;
54171;SDS011;40076;52.354;4.970;2023-03-05T00:25:30;8.60;;;1.75;;
54171;SDS011;40076;52.354;4.970;2023-03-05T00:27:55;7.13;;;1.83;;
54171;SDS011;40076;52.354;4.970;2023-03-05T00:30:21;9.55;;;2.50;;
54171;SDS011;40076;52.354;4.970;2023-03-05T00:32:46;10.25;;;1.77;;
54171;SDS011;40076;52.354;4.970;2023-03-05T00:35:11;7.93;;;1.65;;
54171;SDS011;40076;52.354;4.970;2023-03-05T00:37:36;9.75;;;1.67;;
54171;SDS011;40076;52.354;4.970;2023-03-05T00:40:02;11.02;;;1.50;;
54171;SDS011;40076;52.354;4.970;2023-03-05T00:42:28;8.40;;;1.48;;
54171;SDS011;40076;52.354;4.970;2023-03-05T00:44:53;7.18;;;1.92;;
54171;SDS011;40076;52.354;4.970;2023-03-05T00:47:19;7.40;;;1.60;;
54171;SDS011;40076;52.354;4.970;2023-03-05T00:49:44;9.68;;;1.92;;
54171;SDS011;40076;52.354;4.970;2023-03-05T00:52:09;7.53;;;1.65;;
54171;SDS011;40076;52.354;4.970;2023-03-05T00:54:35;7.80;;;1.85;;
54171;SDS011;40076;52.354;4.970;2023-03-05T00:57:00;7.40;;;1.80;;
54171;SDS011;40076;52.354;4.970;2023-03-05T00:59:25;12.73;;;2.22;;
54171;SDS011;40076;52.354;4.970;2023-03-05T01:01:51;9.65;;;1.83;;
54171;SDS011;40076;52.354;4.970;2023-03-05T01:04:16;13.07;;;2.50;;
54171;SDS011;40076;52.354;4.970;2023-03-05T01:06:42;7.18;;;1.60;;
54171;SDS011;40076;52.354;4.970;2023-03-05T01:09:08;8.50;;;1.92;;
54171;SDS011;40076;52.354;4.970;2023-03-05T01:11:34;10.18;;;2.03;;
54171;SDS011;40076;52.354;4.970;2023-03-05T01:13:59;5.88;;;1.60;;
54171;SDS011;40076;52.354;4.970;2023-03-05T01:16:25;8.23;;;1.77;;
54171;SDS011;40076;52.354;4.970;2023-03-05T01:18:50;8.48;;;2.33;;
54171;SDS011;40076;52.354;4.970;2023-03-05T01:21:15;9.05;;;2.22;;
54171;SDS011;40076;52.354;4.970;2023-03-05T01:23:40;9.10;;;1.80;;
54171;SDS011;40076;52.354;4.970;2023-03-05T01:26:06;9.15;;;2.00;;
54171;SDS011;40076;52.354;4.970;2023-03-05T01:28:32;6.97;;;1.67;;
54171;SDS011;40076;52.354;4.970;2023-03-05T01:30:58;6.60;;;1.30;;
54171;SDS011;40076;52.354;4.970;2023-03-05T01:33:23;8.30;;;1.48;;
54171;SDS011;40076;52.354;4.970;2023-03-05T01:35:49;4.22;;;0.60;;
54171;SDS011;40076;52.354;4.970;2023-03-05T01:38:14;7.55;;;0.90;;
54171;SDS011;40076;52.354;4.970;2023-03-05T01:40:40;7.55;;;0.90;;
54171;SDS011;40076;52.354;4.970;2023-03-05T01:45:35;7.88;;;0.98;;
54171;SDS011;40076;52.354;4.970;2023-03-05T01:48:00;10.73;;;1.42;;
54171;SDS011;40076;52.354;4.970;2023-03-05T01:50:25;7.07;;;1.08;;
54171;SDS011;40076;52.354;4.970;2023-03-05T01:52:53;5.97;;;1.08;;
54171;SDS011;40076;52.354;4.970;2023-03-05T01:55:22;8.57;;;1.15;;
54171;SDS011;40076;52.354;4.970;2023-03-05T01:58:23;9.98;;;1.52;;
54171;SDS011;40076;52.354;4.970;2023-03-05T02:00:43;6.20;;;1.35;;
54171;SDS011;40076;52.354;4.970;2023-03-05T02:03:10;8.15;;;1.27;;
54171;SDS011;40076;52.354;4.970;2023-03-05T02:05:37;9.65;;;2.33;;
54171;SDS011;40076;52.354;4.970;2023-03-05T02:08:06;8.52;;;1.88;;
54171;SDS011;40076;52.354;4.970;2023-03-05T02:10:33;5.72;;;1.55;;
54171;SDS011;40076;52.354;4.970;2023-03-05T02:13:02;9.80;;;2.10;;
54171;SDS011;40076;52.354;4.970;2023-03-05T02:15:31;6.70;;;1.52;;
54171;SDS011;40076;52.354;4.970;2023-03-05T02:17:57;8.43;;;1.98;;
54171;SDS011;40076;52.354;4.970;2023-03-05T02:20:24;8.02;;;2.10;;
54171;SDS011;40076;52.354;4.970;2023-03-05T02:22:51;7.15;;;1.88;;
54171;SDS011;40076;52.354;4.970;2023-03-05T02:25:18;5.07;;;1.65;;
54171;SDS011;40076;52.354;4.970;2023-03-05T02:27:53;8.38;;;2.13;;
54171;SDS011;40076;52.354;4.970;2023-03-05T02:30:24;7.05;;;1.83;;
54171;SDS011;40076;52.354;4.970;2023-03-05T02:32:50;9.60;;;2.60;;
54171;SDS011;40076;52.354;4.970;2023-03-05T02:35:15;7.40;;;2.20;;
54171;SDS011;40076;52.354;4.970;2023-03-05T02:37:41;9.70;;;1.98;;
54171;SDS011;40076;52.354;4.970;2023-03-05T02:40:07;8.68;;;2.28;;
54171;SDS011;40076;52.354;4.970;2023-03-05T02:42:33;7.63;;;1.98;;
54171;SDS011;40076;52.354;4.970;2023-03-05T02:44:59;7.60;;;1.90;;
54171;SDS011;40076;52.354;4.970;2023-03-05T02:47:25;6.30;;;2.20;;
54171;SDS011;40076;52.354;4.970;2023-03-05T02:49:52;7.47;;;2.05;;
54171;SDS011;40076;52.354;4.970;2023-03-05T02:52:18;7.43;;;1.75;;
54171;SDS011;40076;52.354;4.970;2023-03-05T02:54:44;7.45;;;2.33;;
54171;SDS011;40076;52.354;4.970;2023-03-05T02:57:09;6.68;;;2.05;;
54171;SDS011;40076;52.354;4.970;2023-03-05T02:59:35;7.70;;;2.35;;
54171;SDS011;40076;52.354;4.970;2023-03-05T03:02:00;9.80;;;2.83;;
54171;SDS011;40076;52.354;4.970;2023-03-05T03:04:25;8.82;;;2.03;;
54171;SDS011;40076;52.354;4.970;2023-03-05T03:06:50;12.77;;;2.53;;
54171;SDS011;40076;52.354;4.970;2023-03-05T03:09:16;5.97;;;2.05;;
54171;SDS011;40076;52.354;4.970;2023-03-05T03:11:41;10.30;;;2.55;;
54171;SDS011;40076;52.354;4.970;2023-03-05T03:14:06;8.77;;;1.90;;
54171;SDS011;40076;52.354;4.970;2023-03-05T03:16:32;11.43;;;2.67;;
54171;SDS011;40076;52.354;4.970;2023-03-05T03:18:58;9.50;;;2.13;;
54171;SDS011;40076;52.354;4.970;2023-03-05T03:21:23;7.60;;;2.33;;
54171;SDS011;40076;52.354;4.970;2023-03-05T03:23:50;7.82;;;2.20;;
54171;SDS011;40076;52.354;4.970;2023-03-05T03:26:16;8.68;;;2.20;;
54171;SDS011;40076;52.354;4.970;2023-03-05T03:28:42;11.75;;;2.22;;
54171;SDS011;40076;52.354;4.970;2023-03-05T03:31:07;8.35;;;1.88;;
54171;SDS011;40076;52.354;4.970;2023-03-05T03:33:32;8.35;;;1.80;;
54171;SDS011;40076;52.354;4.970;2023-03-05T03:35:58;8.73;;;2.08;;
54171;SDS011;40076;52.354;4.970;2023-03-05T03:38:23;7.90;;;2.13;;
54171;SDS011;40076;52.354;4.970;2023-03-05T03:40:48;7.57;;;1.90;;
54171;SDS011;40076;52.354;4.970;2023-03-05T03:43:13;8.77;;;1.90;;
54171;SDS011;40076;52.354;4.970;2023-03-05T03:45:40;8.45;;;2.28;;
54171;SDS011;40076;52.354;4.970;2023-03-05T03:48:06;8.30;;;2.13;;
54171;SDS011;40076;52.354;4.970;2023-03-05T03:50:32;8.35;;;2.22;;
54171;SDS011;40076;52.354;4.970;2023-03-05T03:52:57;9.27;;;2.10;;
54171;SDS011;40076;52.354;4.970;2023-03-05T03:55:23;7.40;;;2.20;;
54171;SDS011;40076;52.354;4.970;2023-03-05T03:57:48;11.95;;;2.65;;
54171;SDS011;40076;52.354;4.970;2023-03-05T04:00:13;12.85;;;3.05;;
54171;SDS011;40076;52.354;4.970;2023-03-05T04:02:39;8.00;;;2.50;;
54171;SDS011;40076;52.354;4.970;2023-03-05T04:05:04;8.05;;;3.20;;
54171;SDS011;40076;52.354;4.970;2023-03-05T04:07:30;15.02;;;4.03;;
54171;SDS011;40076;52.354;4.970;2023-03-05T04:09:55;8.82;;;3.38;;
54171;SDS011;40076;52.354;4.970;2023-03-05T04:12:21;11.70;;;3.42;;
54171;SDS011;40076;52.354;4.970;2023-03-05T04:14:47;8.18;;;2.70;;
54171;SDS011;40076;52.354;4.970;2023-03-05T04:17:13;11.43;;;3.25;;
54171;SDS011;40076;52.354;4.970;2023-03-05T04:19:39;12.13;;;3.40;;
54171;SDS011;40076;52.354;4.970;2023-03-05T04:22:15;11.20;;;3.10;;
54171;SDS011;40076;52.354;4.970;2023-03-05T04:24:42;9.73;;;3.22;;
54171;SDS011;40076;52.354;4.970;2023-03-05T04:27:07;9.50;;;3.80;;
54171;SDS011;40076;52.354;4.970;2023-03-05T04:29:33;9.63;;;3.67;;
54171;SDS011;40076;52.354;4.970;2023-03-05T04:31:58;7.13;;;2.70;;
54171;SDS011;40076;52.354;4.970;2023-03-05T04:34:24;13.57;;;3.25;;
54171;SDS011;40076;52.354;4.970;2023-03-05T04:36:49;6.60;;;2.58;;
54171;SDS011;40076;52.354;4.970;2023-03-05T04:39:14;9.23;;;2.33;;
54171;SDS011;40076;52.354;4.970;2023-03-05T04:41:40;8.82;;;2.63;;
54171;SDS011;40076;52.354;4.970;2023-03-05T04:44:05;10.52;;;2.83;;
54171;SDS011;40076;52.354;4.970;2023-03-05T04:46:31;6.45;;;2.20;;
54171;SDS011;40076;52.354;4.970;2023-03-05T04:48:56;7.20;;;1.67;;
54171;SDS011;40076;52.354;4.970;2023-03-05T04:51:22;7.50;;;1.80;;
54171;SDS011;40076;52.354;4.970;2023-03-05T04:53:47;8.65;;;2.30;;
54171;SDS011;40076;52.354;4.970;2023-03-05T04:56:12;6.55;;;2.00;;
54171;SDS011;40076;52.354;4.970;2023-03-05T04:58:38;9.13;;;1.67;;
54171;SDS011;40076;52.354;4.970;2023-03-05T05:01:04;6.05;;;1.75;;
54171;SDS011;40076;52.354;4.970;2023-03-05T05:03:30;4.50;;;0.93;;
54171;SDS011;40076;52.354;4.970;2023-03-05T05:05:56;7.32;;;0.85;;
54171;SDS011;40076;52.354;4.970;2023-03-05T05:08:23;7.93;;;1.10;;
54171;SDS011;40076;52.354;4.970;2023-03-05T05:10:59;9.38;;;1.13;;
54171;SDS011;40076;52.354;4.970;2023-03-05T05:13:26;6.70;;;1.05;;
54171;SDS011;40076;52.354;4.970;2023-03-05T05:15:52;9.07;;;1.55;;
54171;SDS011;40076;52.354;4.970;2023-03-05T05:18:17;5.03;;;1.30;;
54171;SDS011;40076;52.354;4.970;2023-03-05T05:20:42;5.07;;;1.60;;
54171;SDS011;40076;52.354;4.970;2023-03-05T05:23:08;7.60;;;1.45;;
54171;SDS011;40076;52.354;4.970;2023-03-05T05:25:33;8.68;;;2.85;;
54171;SDS011;40076;52.354;4.970;2023-03-05T05:27:58;6.18;;;2.03;;
54171;SDS011;40076;52.354;4.970;2023-03-05T05:30:24;6.35;;;2.10;;
54171;SDS011;40076;52.354;4.970;2023-03-05T05:32:49;7.03;;;1.55;;
54171;SDS011;40076;52.354;4.970;2023-03-05T05:35:14;6.32;;;1.48;;
54171;SDS011;40076;52.354;4.970;2023-03-05T05:37:40;9.25;;;1.27;;
54171;SDS011;40076;52.354;4.970;2023-03-05T05:40:05;5.78;;;1.60;;
54171;SDS011;40076;52.354;4.970;2023-03-05T05:42:33;9.52;;;2.30;;
54171;SDS011;40076;52.354;4.970;2023-03-05T05:45:00;7.68;;;1.90;;
54171;SDS011;40076;52.354;4.970;2023-03-05T05:47:27;8.63;;;1.55;;
54171;SDS011;40076;52.354;4.970;2023-03-05T05:49:53;7.80;;;1.63;;
54171;SDS011;40076;52.354;4.970;2023-03-05T05:52:19;6.50;;;1.60;;
54171;SDS011;40076;52.354;4.970;2023-03-05T05:54:44;9.25;;;1.70;;
54171;SDS011;40076;52.354;4.970;2023-03-05T05:57:09;5.78;;;1.33;;
54171;SDS011;40076;52.354;4.970;2023-03-05T05:59:35;5.93;;;1.80;;
54171;SDS011;40076;52.354;4.970;2023-03-05T06:02:01;5.15;;;1.27;;
54171;SDS011;40076;52.354;4.970;2023-03-05T06:04:27;7.47;;;1.85;;
54171;SDS011;40076;52.354;4.970;2023-03-05T06:06:52;6.28;;;1.63;;
54171;SDS011;40076;52.354;4.970;2023-03-05T06:09:18;3.75;;;1.08;;
54171;SDS011;40076;52.354;4.970;2023-03-05T06:11:43;5.43;;;1.23;;
54171;SDS011;40076;52.354;4.970;2023-03-05T06:14:09;8.52;;;1.92;;
54171;SDS011;40076;52.354;4.970;2023-03-05T06:16:35;6.30;;;1.80;;
54171;SDS011;40076;52.354;4.970;2023-03-05T06:19:01;7.90;;;1.70;;
54171;SDS011;40076;52.354;4.970;2023-03-05T06:21:28;6.10;;;1.60;;
54171;SDS011;40076;52.354;4.970;2023-03-05T06:23:53;3.03;;;0.85;;
54171;SDS011;40076;52.354;4.970;2023-03-05T06:26:19;6.15;;;0.98;;
54171;SDS011;40076;52.354;4.970;2023-03-05T06:28:46;3.90;;;1.00;;
54171;SDS011;40076;52.354;4.970;2023-03-05T06:31:12;5.18;;;1.15;;
54171;SDS011;40076;52.354;4.970;2023-03-05T06:33:40;4.75;;;0.93;;
54171;SDS011;40076;52.354;4.970;2023-03-05T06:36:06;5.90;;;0.82;;
54171;SDS011;40076;52.354;4.970;2023-03-05T06:38:34;6.22;;;0.75;;
54171;SDS011;40076;52.354;4.970;2023-03-05T06:41:00;4.70;;;0.77;;
54171;SDS011;40076;52.354;4.970;2023-03-05T06:43:29;2.88;;;0.70;;
54171;SDS011;40076;52.354;4.970;2023-03-05T06:46:01;2.10;;;0.50;;
54171;SDS011;40076;52.354;4.970;2023-03-05T06:48:28;5.32;;;1.13;;
54171;SDS011;40076;52.354;4.970;2023-03-05T06:50:53;4.25;;;1.35;;
54171;SDS011;40076;52.354;4.970;2023-03-05T06:53:18;7.15;;;1.13;;
54171;SDS011;40076;52.354;4.970;2023-03-05T06:55:44;4.45;;;0.70;;
54171;SDS011;40076;52.354;4.970;2023-03-05T06:58:09;2.83;;;0.75;;
54171;SDS011;40076;52.354;4.970;2023-03-05T07:00:34;4.13;;;0.88;;
54171;SDS011;40076;52.354;4.970;2023-03-05T07:03:00;5.13;;;1.00;;
54171;SDS011;40076;52.354;4.970;2023-03-05T07:05:25;5.25;;;1.00;;
54171;SDS011;40076;52.354;4.970;2023-03-05T07:07:50;4.40;;;1.02;;
54171;SDS011;40076;52.354;4.970;2023-03-05T07:10:16;6.05;;;1.10;;
54171;SDS011;40076;52.354;4.970;2023-03-05T07:12:43;5.03;;;1.25;;
54171;SDS011;40076;52.354;4.970;2023-03-05T07:15:08;4.45;;;1.20;;
54171;SDS011;40076;52.354;4.970;2023-03-05T07:17:34;7.90;;;1.27;;
54171;SDS011;40076;52.354;4.970;2023-03-05T07:19:59;6.75;;;1.60;;
54171;SDS011;40076;52.354;4.970;2023-03-05T07:22:24;6.78;;;1.52;;
54171;SDS011;40076;52.354;4.970;2023-03-05T07:24:50;5.53;;;2.05;;
54171;SDS011;40076;52.354;4.970;2023-03-05T07:27:15;12.38;;;1.58;;
54171;SDS011;40076;52.354;4.970;2023-03-05T07:29:40;7.60;;;1.77;;
54171;SDS011;40076;52.354;4.970;2023-03-05T07:32:06;7.05;;;1.80;;
54171;SDS011;40076;52.354;4.970;2023-03-05T07:34:31;5.05;;;1.52;;
54171;SDS011;40076;52.354;4.970;2023-03-05T07:36:56;8.80;;;2.10;;
54171;SDS011;40076;52.354;4.970;2023-03-05T07:39:22;6.25;;;1.50;;
54171;SDS011;40076;52.354;4.970;2023-03-05T07:41:47;8.25;;;1.70;;
54171;SDS011;40076;52.354;4.970;2023-03-05T07:44:15;9.27;;;1.75;;
54171;SDS011;40076;52.354;4.970;2023-03-05T07:46:41;5.65;;;1.35;;
54171;SDS011;40076;52.354;4.970;2023-03-05T07:49:07;8.73;;;2.00;;
54171;SDS011;40076;52.354;4.970;2023-03-05T07:51:32;6.22;;;1.95;;
54171;SDS011;40076;52.354;4.970;2023-03-05T07:53:57;5.38;;;1.30;;
54171;SDS011;40076;52.354;4.970;2023-03-05T07:56:30;9.70;;;2.33;;
54171;SDS011;40076;52.354;4.970;2023-03-05T07:58:59;4.97;;;1.52;;
54171;SDS011;40076;52.354;4.970;2023-03-05T08:01:27;8.50;;;1.88;;
54171;SDS011;40076;52.354;4.970;2023-03-05T08:03:53;8.93;;;2.85;;
54171;SDS011;40076;52.354;4.970;2023-03-05T08:06:18;9.75;;;2.20;;
54171;SDS011;40076;52.354;4.970;2023-03-05T08:08:44;6.20;;;1.48;;
54171;SDS011;40076;52.354;4.970;2023-03-05T08:11:11;7.10;;;1.38;;
54171;SDS011;40076;52.354;4.970;2023-03-05T08:13:38;7.55;;;1.50;;
54171;SDS011;40076;52.354;4.970;2023-03-05T08:16:14;5.05;;;1.30;;
54171;SDS011;40076;52.354;4.970;2023-03-05T08:18:42;6.80;;;1.30;;
54171;SDS011;40076;52.354;4.970;2023-03-05T08:21:14;4.53;;;0.93;;
54171;SDS011;40076;52.354;4.970;2023-03-05T08:23:41;4.85;;;1.17;;
54171;SDS011;40076;52.354;4.970;2023-03-05T08:26:13;7.72;;;1.23;;
54171;SDS011;40076;52.354;4.970;2023-03-05T08:31:09;6.37;;;1.20;;
54171;SDS011;40076;52.354;4.970;2023-03-05T08:33:35;8.43;;;2.25;;
54171;SDS011;40076;52.354;4.970;2023-03-05T08:36:02;7.38;;;1.50;;
54171;SDS011;40076;52.354;4.970;2023-03-05T08:38:27;5.65;;;2.20;;
54171;SDS011;40076;52.354;4.970;2023-03-05T08:40:52;4.03;;;1.50;;
54171;SDS011;40076;52.354;4.970;2023-03-05T08:43:18;5.85;;;1.95;;
54171;SDS011;40076;52.354;4.970;2023-03-05T08:45:43;6.25;;;1.90;;
54171;SDS011;40076;52.354;4.970;2023-03-05T08:48:11;5.93;;;2.15;;
54171;SDS011;40076;52.354;4.970;2023-03-05T08:50:36;6.28;;;1.77;;
54171;SDS011;40076;52.354;4.970;2023-03-05T08:53:02;4.88;;;1.35;;
54171;SDS011;40076;52.354;4.970;2023-03-05T08:55:29;4.97;;;1.40;;
54171;SDS011;40076;52.354;4.970;2023-03-05T08:57:55;5.05;;;1.98;;
54171;SDS011;40076;52.354;4.970;2023-03-05T09:00:20;6.78;;;0.98;;
54171;SDS011;40076;52.354;4.970;2023-03-05T09:02:46;5.15;;;1.58;;
54171;SDS011;40076;52.354;4.970;2023-03-05T09:05:12;5.88;;;1.70;;
54171;SDS011;40076;52.354;4.970;2023-03-05T09:07:37;6.75;;;1.60;;
54171;SDS011;40076;52.354;4.970;2023-03-05T09:10:03;5.70;;;1.50;;
54171;SDS011;40076;52.354;4.970;2023-03-05T09:12:29;5.05;;;1.80;;
54171;SDS011;40076;52.354;4.970;2023-03-05T09:14:55;5.82;;;1.70;;
54171;SDS011;40076;52.354;4.970;2023-03-05T09:17:20;6.18;;;1.90;;
54171;SDS011;40076;52.354;4.970;2023-03-05T09:19:46;5.00;;;1.65;;
54171;SDS011;40076;52.354;4.970;2023-03-05T09:22:12;6.20;;;1.40;;
54171;SDS011;40076;52.354;4.970;2023-03-05T09:24:37;10.00;;;1.58;;
54171;SDS011;40076;52.354;4.970;2023-03-05T09:27:03;6.18;;;1.67;;
54171;SDS011;40076;52.354;4.970;2023-03-05T09:29:28;8.02;;;1.50;;
54171;SDS011;40076;52.354;4.970;2023-03-05T09:31:55;6.20;;;1.60;;
54171;SDS011;40076;52.354;4.970;2023-03-05T09:34:21;4.47;;;1.08;;
54171;SDS011;40076;52.354;4.970;2023-03-05T09:36:47;5.57;;;1.42;;
54171;SDS011;40076;52.354;4.970;2023-03-05T09:39:12;5.38;;;1.27;;
54171;SDS011;40076;52.354;4.970;2023-03-05T09:44:24;5.50;;;1.38;;
54171;SDS011;40076;52.354;4.970;2023-03-05T09:52:18;6.60;;;1.00;;
54171;SDS011;40076;52.354;4.970;2023-03-05T09:54:47;7.53;;;1.38;;
54171;SDS011;40076;52.354;4.970;2023-03-05T09:57:19;6.22;;;1.55;;
54171;SDS011;40076;52.354;4.970;2023-03-05T10:02:24;4.18;;;0.88;;
54171;SDS011;40076;52.354;4.970;2023-03-05T10:04:59;7.63;;;1.85;;
54171;SDS011;40076;52.354;4.970;2023-03-05T10:07:33;9.55;;;1.75;;
54171;SDS011;40076;52.354;4.970;2023-03-05T10:10:09;4.57;;;0.85;;
54171;SDS011;40076;52.354;4.970;2023-03-05T10:12:56;6.63;;;1.35;;
54171;SDS011;40076;52.354;4.970;2023-03-05T10:15:33;6.38;;;0.95;;
54171;SDS011;40076;52.354;4.970;2023-03-05T10:26:41;6.40;;;0.88;;
54171;SDS011;40076;52.354;4.970;2023-03-05T10:29:39;5.80;;;0.80;;
54171;SDS011;40076;52.354;4.970;2023-03-05T10:32:17;4.80;;;0.95;;
54171;SDS011;40076;52.354;4.970;2023-03-05T10:40:17;2.88;;;0.95;;
54171;SDS011;40076;52.354;4.970;2023-03-05T10:45:40;7.03;;;1.10;;
54171;SDS011;40076;52.354;4.970;2023-03-05T10:51:09;10.05;;;1.25;;
54171;SDS011;40076;52.354;4.970;2023-03-05T10:53:58;4.95;;;0.93;;
54171;SDS011;40076;52.354;4.970;2023-03-05T10:56:33;8.50;;;1.58;;
54171;SDS011;40076;52.354;4.970;2023-03-05T10:58:58;5.85;;;1.10;;
54171;SDS011;40076;52.354;4.970;2023-03-05T11:01:25;6.18;;;1.20;;
54171;SDS011;40076;52.354;4.970;2023-03-05T11:03:59;6.07;;;1.48;;
54171;SDS011;40076;52.354;4.970;2023-03-05T11:14:31;8.80;;;1.23;;
54171;SDS011;40076;52.354;4.970;2023-03-05T11:16:58;5.63;;;1.30;;
54171;SDS011;40076;52.354;4.970;2023-03-05T11:19:25;5.80;;;1.40;;
54171;SDS011;40076;52.354;4.970;2023-03-05T11:22:11;7.65;;;1.23;;
54171;SDS011;40076;52.354;4.970;2023-03-05T11:24:40;5.65;;;1.08;;
54171;SDS011;40076;52.354;4.970;2023-03-05T11:27:26;12.07;;;2.20;;
54171;SDS011;40076;52.354;4.970;2023-03-05T11:29:58;7.50;;;1.58;;
54171;SDS011;40076;52.354;4.970;2023-03-05T11:32:28;6.00;;;1.20;;
54171;SDS011;40076;52.354;4.970;2023-03-05T11:34:54;5.47;;;1.20;;
54171;SDS011;40076;52.354;4.970;2023-03-05T11:37:22;4.90;;;1.02;;
54171;SDS011;40076;52.354;4.970;2023-03-05T11:42:34;5.82;;;1.02;;
54171;SDS011;40076;52.354;4.970;2023-03-05T11:45:02;4.38;;;0.85;;
54171;SDS011;40076;52.354;4.970;2023-03-05T11:50:21;3.35;;;0.90;;
54171;SDS011;40076;52.354;4.970;2023-03-05T11:52:48;5.22;;;1.00;;
54171;SDS011;40076;52.354;4.970;2023-03-05T11:55:18;3.67;;;0.70;;
54171;SDS011;40076;52.354;4.970;2023-03-05T11:58:02;4.70;;;0.68;;
54171;SDS011;40076;52.354;4.970;2023-03-05T12:00:29;4.43;;;0.52;;
54171;SDS011;40076;52.354;4.970;2023-03-05T12:02:57;5.47;;;0.65;;
54171;SDS011;40076;52.354;4.970;2023-03-05T12:05:26;3.58;;;0.50;;
54171;SDS011;40076;52.354;4.970;2023-03-05T12:07:57;2.50;;;0.85;;
54171;SDS011;40076;52.354;4.970;2023-03-05T12:10:25;3.42;;;0.40;;
54171;SDS011;40076;52.354;4.970;2023-03-05T12:16:33;2.60;;;0.60;;
54171;SDS011;40076;52.354;4.970;2023-03-05T12:29:27;3.60;;;0.95;;
54171;SDS011;40076;52.354;4.970;2023-03-05T12:32:05;5.55;;;0.85;;
54171;SDS011;40076;52.354;4.970;2023-03-05T12:53:17;3.47;;;1.00;;
54171;SDS011;40076;52.354;4.970;2023-03-05T13:03:45;4.15;;;1.00;;
54171;SDS011;40076;52.354;4.970;2023-03-05T13:06:33;5.10;;;1.05;;
54171;SDS011;40076;52.354;4.970;2023-03-05T13:09:03;5.05;;;1.15;;
54171;SDS011;40076;52.354;4.970;2023-03-05T13:11:48;4.32;;;0.82;;
54171;SDS011;40076;52.354;4.970;2023-03-05T13:14:34;6.88;;;0.90;;
54171;SDS011;40076;52.354;4.970;2023-03-05T13:19:48;3.40;;;0.85;;
54171;SDS011;40076;52.354;4.970;2023-03-05T13:22:13;5.20;;;1.23;;
54171;SDS011;40076;52.354;4.970;2023-03-05T13:24:39;9.52;;;0.93;;
54171;SDS011;40076;52.354;4.970;2023-03-05T13:27:17;3.90;;;1.25;;
54171;SDS011;40076;52.354;4.970;2023-03-05T13:29:51;4.05;;;0.98;;
54171;SDS011;40076;52.354;4.970;2023-03-05T13:32:22;5.18;;;1.30;;
54171;SDS011;40076;52.354;4.970;2023-03-05T13:34:50;3.63;;;1.10;;
54171;SDS011;40076;52.354;4.970;2023-03-05T13:37:20;6.40;;;0.90;;
54171;SDS011;40076;52.354;4.970;2023-03-05T13:39:55;3.35;;;0.80;;
54171;SDS011;40076;52.354;4.970;2023-03-05T13:42:27;6.82;;;1.40;;
54171;SDS011;40076;52.354;4.970;2023-03-05T13:47:24;3.17;;;0.60;;
54171;SDS011;40076;52.354;4.970;2023-03-05T13:49:58;6.28;;;0.70;;
54171;SDS011;40076;52.354;4.970;2023-03-05T13:52:29;3.92;;;0.80;;
54171;SDS011;40076;52.354;4.970;2023-03-05T13:54:57;3.88;;;1.50;;
54171;SDS011;40076;52.354;4.970;2023-03-05T13:57:57;3.55;;;0.98;;
54171;SDS011;40076;52.354;4.970;2023-03-05T14:02:51;4.75;;;0.80;;
54171;SDS011;40076;52.354;4.970;2023-03-05T14:05:18;4.72;;;1.33;;
54171;SDS011;40076;52.354;4.970;2023-03-05T14:07:45;3.25;;;0.90;;
54171;SDS011;40076;52.354;4.970;2023-03-05T14:10:26;3.72;;;0.90;;
54171;SDS011;40076;52.354;4.970;2023-03-05T14:13:05;4.50;;;0.80;;
54171;SDS011;40076;52.354;4.970;2023-03-05T14:15:37;4.80;;;1.08;;
54171;SDS011;40076;52.354;4.970;2023-03-05T14:18:21;3.92;;;1.05;;
54171;SDS011;40076;52.354;4.970;2023-03-05T14:23:42;3.42;;;1.45;;
54171;SDS011;40076;52.354;4.970;2023-03-05T14:29:11;4.30;;;1.20;;
54171;SDS011;40076;52.354;4.970;2023-03-05T14:31:46;5.95;;;1.10;;
54171;SDS011;40076;52.354;4.970;2023-03-05T14:34:28;6.30;;;1.30;;
54171;SDS011;40076;52.354;4.970;2023-03-05T14:36:58;6.05;;;1.35;;
54171;SDS011;40076;52.354;4.970;2023-03-05T14:39:48;5.32;;;0.95;;
54171;SDS011;40076;52.354;4.970;2023-03-05T14:42:28;5.18;;;0.82;;
54171;SDS011;40076;52.354;4.970;2023-03-05T14:45:22;6.18;;;1.10;;
54171;SDS011;40076;52.354;4.970;2023-03-05T14:47:54;6.53;;;1.30;;
54171;SDS011;40076;52.354;4.970;2023-03-05T14:50:22;4.15;;;1.50;;
54171;SDS011;40076;52.354;4.970;2023-03-05T14:52:50;3.65;;;1.17;;
54171;SDS011;40076;52.354;4.970;2023-03-05T14:55:19;4.75;;;1.10;;
54171;SDS011;40076;52.354;4.970;2023-03-05T14:57:47;6.25;;;1.73;;
54171;SDS011;40076;52.354;4.970;2023-03-05T15:00:20;3.33;;;1.20;;
54171;SDS011;40076;52.354;4.970;2023-03-05T15:02:47;9.30;;;1.50;;
54171;SDS011;40076;52.354;4.970;2023-03-05T15:05:13;7.35;;;2.35;;
54171;SDS011;40076;52.354;4.970;2023-03-05T15:07:38;4.57;;;1.40;;
54171;SDS011;40076;52.354;4.970;2023-03-05T15:10:04;9.50;;;1.20;;
54171;SDS011;40076;52.354;4.970;2023-03-05T15:12:31;4.68;;;1.23;;
54171;SDS011;40076;52.354;4.970;2023-03-05T15:14:57;5.60;;;1.27;;
54171;SDS011;40076;52.354;4.970;2023-03-05T15:17:25;6.32;;;1.05;;
54171;SDS011;40076;52.354;4.970;2023-03-05T15:19:58;4.70;;;1.20;;
54171;SDS011;40076;52.354;4.970;2023-03-05T15:22:24;3.22;;;0.80;;
54171;SDS011;40076;52.354;4.970;2023-03-05T15:24:50;4.70;;;1.15;;
54171;SDS011;40076;52.354;4.970;2023-03-05T15:27:15;3.65;;;0.90;;
54171;SDS011;40076;52.354;4.970;2023-03-05T15:29:41;7.60;;;1.20;;
54171;SDS011;40076;52.354;4.970;2023-03-05T15:32:06;7.38;;;1.42;;
54171;SDS011;40076;52.354;4.970;2023-03-05T15:34:32;6.50;;;0.80;;
54171;SDS011;40076;52.354;4.970;2023-03-05T15:36:58;5.43;;;0.90;;
54171;SDS011;40076;52.354;4.970;2023-03-05T15:39:24;7.72;;;0.98;;
54171;SDS011;40076;52.354;4.970;2023-03-05T15:41:50;6.28;;;1.27;;
54171;SDS011;40076;52.354;4.970;2023-03-05T15:44:16;4.63;;;1.10;;
54171;SDS011;40076;52.354;4.970;2023-03-05T15:46:41;3.53;;;0.80;;
54171;SDS011;40076;52.354;4.970;2023-03-05T15:49:07;2.80;;;0.70;;
54171;SDS011;40076;52.354;4.970;2023-03-05T15:51:32;3.20;;;0.73;;
54171;SDS011;40076;52.354;4.970;2023-03-05T15:53:57;3.72;;;0.73;;
54171;SDS011;40076;52.354;4.970;2023-03-05T15:56:23;5.55;;;1.00;;
54171;SDS011;40076;52.354;4.970;2023-03-05T15:58:48;4.03;;;0.68;;
54171;SDS011;40076;52.354;4.970;2023-03-05T16:01:19;5.68;;;1.20;;
54171;SDS011;40076;52.354;4.970;2023-03-05T16:03:46;5.75;;;0.90;;
54171;SDS011;40076;52.354;4.970;2023-03-05T16:06:11;3.95;;;0.80;;
54171;SDS011;40076;52.354;4.970;2023-03-05T16:08:38;6.38;;;0.90;;
54171;SDS011;40076;52.354;4.970;2023-03-05T16:11:07;5.15;;;1.00;;
54171;SDS011;40076;52.354;4.970;2023-03-05T16:13:33;4.28;;;0.70;;
54171;SDS011;40076;52.354;4.970;2023-03-05T16:15:59;4.85;;;1.10;;
54171;SDS011;40076;52.354;4.970;2023-03-05T16:18:27;6.28;;;0.90;;
54171;SDS011;40076;52.354;4.970;2023-03-05T16:20:55;3.83;;;0.80;;
54171;SDS011;40076;52.354;4.970;2023-03-05T16:23:20;7.00;;;1.30;;
54171;SDS011;40076;52.354;4.970;2023-03-05T16:25:46;5.10;;;1.17;;
54171;SDS011;40076;52.354;4.970;2023-03-05T16:28:11;8.30;;;1.15;;
54171;SDS011;40076;52.354;4.970;2023-03-05T16:30:37;2.00;;;0.60;;
54171;SDS011;40076;52.354;4.970;2023-03-05T16:33:02;2.92;;;0.57;;